Time;durP1;ratioP1;P1;durP2;ratioP2;P2;SDS_P1;SDS_P2;PMS_P1;PMS_P2;Temp;Humidity;BMP_temperature;BMP_pressure;BME280_temperature;BME280_humidity;BME280_pressure;Samples;Min_cycle;Max_cycle;Signal;HPM_P1;HPM_P2
2021/05/04 00:00:02;;;;;;;0.70;0.60;;;11.60;27.50;;;12.28;100.00;-21016.06;4993645;28;20582;-71
2021/05/04 00:02:35;;;;;;;0.70;0.60;;;11.60;27.60;;;12.36;100.00;-21018.13;5003098;28;20490;-70
2021/05/04 00:05:03;;;;;;;0.70;0.60;;;11.60;27.80;;;12.33;100.00;-21017.28;5010661;28;20440;-71
2021/05/04 00:07:30;;;;;;;0.70;0.60;;;11.60;27.60;;;12.22;100.00;-21014.25;4997174;28;20439;-70
2021/05/04 00:09:57;;;;;;;0.70;0.50;;;11.60;27.80;;;12.22;100.00;-21014.25;4995255;28;20426;-71
2021/05/04 00:12:24;;;;;;;0.70;0.60;;;11.60;28.60;;;12.26;100.00;-21015.50;4980704;28;20453;-71
2021/05/04 00:14:51;;;;;;;0.70;0.60;;;11.50;28.20;;;12.37;100.00;-21018.25;4996816;28;20453;-71
2021/05/04 00:17:18;;;;;;;0.70;0.60;;;11.60;28.30;;;12.27;100.00;-21015.66;5005282;28;20450;-71
2021/05/04 00:19:47;;;;;;;0.70;0.60;;;11.60;27.90;;;12.27;100.00;-21015.66;4998055;28;20473;-70
2021/05/04 00:22:14;;;;;;;0.70;0.60;;;11.60;28.50;;;12.33;100.00;-21017.28;5016619;28;20432;-71
2021/05/04 00:24:41;;;;;;;0.70;0.60;;;11.60;28.50;;;12.30;100.00;-21016.47;4998613;28;20464;-71
2021/05/04 00:27:08;;;;;;;0.70;0.60;;;11.60;28.70;;;12.30;100.00;-21016.63;4998798;28;20483;-70
2021/05/04 00:29:36;;;;;;;0.70;0.60;;;11.70;28.80;;;12.47;100.00;-21021.16;4987735;28;20491;-70
2021/05/04 00:32:03;;;;;;;0.70;0.60;;;11.80;27.30;;;12.80;100.00;-21030.00;4996917;28;20461;-72
2021/05/04 00:34:31;;;;;;;0.70;0.60;;;12.20;24.90;;;12.94;100.00;-21033.72;4996583;28;20448;-70
2021/05/04 00:36:59;;;;;;;0.70;0.60;;;12.40;23.80;;;13.11;100.00;-21038.28;4996105;28;20431;-72
2021/05/04 00:39:33;;;;;;;0.70;0.60;;;12.60;22.40;;;13.27;100.00;-21042.81;5013758;28;20483;-71
2021/05/04 00:42:00;;;;;;;0.70;0.60;;;12.60;22.30;;;13.23;100.00;-21041.56;5016358;28;20439;-71
2021/05/04 00:44:27;;;;;;;0.80;0.60;;;12.60;22.10;;;13.39;100.00;-21046.00;5015689;28;20477;-72
2021/05/04 00:46:54;;;;;;;0.70;0.60;;;12.70;21.50;;;13.42;100.00;-21046.69;4990767;28;20463;-72
2021/05/04 00:49:22;;;;;;;0.70;0.60;;;12.80;20.80;;;13.46;100.00;-21047.94;5011226;28;20501;-71
2021/05/04 00:51:52;;;;;;;0.70;0.60;;;12.90;20.20;;;13.57;100.00;-21050.81;4995676;28;20453;-72
2021/05/04 00:54:20;;;;;;;0.70;0.60;;;12.90;20.40;;;13.53;100.00;-21049.84;5005396;28;20453;-73
2021/05/04 00:56:47;;;;;;;0.70;0.60;;;12.90;20.40;;;13.52;100.00;-21049.56;4998386;28;20421;-71
2021/05/04 00:59:16;;;;;;;0.70;0.60;;;12.90;20.00;;;13.54;100.00;-21050.13;5015338;28;20871;-74
2021/05/04 01:01:44;;;;;;;0.70;0.60;;;12.90;19.70;;;13.57;100.00;-21050.69;4997976;28;20501;-72
2021/05/04 01:04:12;;;;;;;0.70;0.60;;;13.00;19.20;;;13.63;100.00;-21052.34;4996207;28;20948;-71
2021/05/04 01:06:39;;;;;;;0.70;0.60;;;13.00;18.90;;;13.56;100.00;-21050.53;4995871;28;20470;-72
2021/05/04 01:09:06;;;;;;;0.70;0.60;;;13.00;19.10;;;13.61;100.00;-21051.78;4994771;28;20473;-71
2021/05/04 01:11:34;;;;;;;0.70;0.67;;;12.90;19.30;;;13.58;100.00;-21050.97;4987708;28;20540;-73
2021/05/04 01:14:02;;;;;;;0.70;0.60;;;12.90;19.30;;;13.51;100.00;-21049.31;4996226;28;20407;-72
2021/05/04 01:16:28;;;;;;;0.70;0.60;;;12.90;19.20;;;13.60;100.00;-21051.66;4994509;28;20492;-73
2021/05/04 01:18:55;;;;;;;0.70;0.53;;;12.90;19.70;;;13.60;100.00;-21051.50;5008335;28;20448;-70
2021/05/04 01:21:23;;;;;;;0.80;0.70;;;12.90;19.20;;;13.56;100.00;-21050.41;4982281;28;20793;-71
2021/05/04 01:23:50;;;;;;;0.70;0.60;;;12.90;19.40;;;13.59;100.00;-21051.38;4995294;28;20464;-70
2021/05/04 01:26:18;;;;;;;0.70;0.60;;;12.90;19.20;;;13.53;100.00;-21049.84;4995278;28;20797;-71
2021/05/04 01:28:44;;;;;;;0.80;0.70;;;12.80;19.50;;;13.51;100.00;-21049.31;5001162;28;20485;-71
2021/05/04 01:31:11;;;;;;;0.70;0.60;;;12.90;19.40;;;13.44;100.00;-21047.38;4996310;28;20451;-71
2021/05/04 01:33:38;;;;;;;0.70;0.63;;;12.80;20.00;;;13.54;100.00;-21050.13;4985529;28;20541;-70
2021/05/04 01:36:06;;;;;;;0.70;0.60;;;12.80;20.00;;;13.38;100.00;-21045.59;5013174;28;20445;-70
2021/05/04 01:38:34;;;;;;;0.70;0.60;;;12.70;20.10;;;13.46;100.00;-21047.78;5014519;28;21015;-71
2021/05/04 01:41:01;;;;;;;0.80;0.70;;;12.70;20.20;;;13.43;100.00;-21046.97;5015151;28;20520;-70
2021/05/04 01:43:28;;;;;;;0.70;0.60;;;12.70;20.00;;;13.36;100.00;-21045.03;5014781;28;20461;-69
2021/05/04 01:45:55;;;;;;;0.70;0.60;;;12.70;20.00;;;13.45;100.00;-21047.50;5006116;28;20841;-69
2021/05/04 01:48:22;;;;;;;0.70;0.60;;;12.70;20.00;;;13.42;100.00;-21046.81;4994927;28;20896;-73
2021/05/04 01:50:49;;;;;;;0.70;0.60;;;12.80;20.40;;;13.49;100.00;-21048.75;4992462;28;20446;-71
2021/05/04 01:53:16;;;;;;;0.70;0.60;;;12.70;20.10;;;13.30;100.00;-21043.50;4995151;28;20457;-73
2021/05/04 01:55:44;;;;;;;0.80;0.60;;;12.70;20.30;;;13.36;100.00;-21045.16;4994967;28;20415;-72
2021/05/04 01:58:12;;;;;;;0.70;0.50;;;12.80;20.00;;;13.34;100.00;-21044.63;4993327;28;20423;-70
2021/05/04 02:00:39;;;;;;;0.70;0.60;;;12.70;20.20;;;13.40;100.00;-21046.13;5009345;28;20556;-72
2021/05/04 02:03:06;;;;;;;0.70;0.60;;;12.80;19.50;;;13.38;100.00;-21045.72;4998701;28;20465;-70
2021/05/04 02:05:33;;;;;;;0.70;0.60;;;12.90;19.40;;;13.43;100.00;-21046.97;4994785;28;20947;-74
2021/05/04 02:08:00;;;;;;;0.70;0.60;;;13.00;18.80;;;13.63;100.00;-21052.47;4989940;28;20855;-70
2021/05/04 02:10:27;;;;;;;0.70;0.60;;;13.10;18.10;;;13.60;100.00;-21051.66;4985950;28;20441;-68
2021/05/04 02:12:55;;;;;;;0.70;0.60;;;13.10;18.60;;;13.62;100.00;-21052.19;5004993;28;20445;-70
2021/05/04 02:15:22;;;;;;;0.70;0.60;;;13.20;17.50;;;13.80;100.00;-21057.03;4994673;28;20441;-70
2021/05/04 02:17:50;;;;;;;0.70;0.63;;;13.30;16.40;;;13.83;100.00;-21057.84;4995080;28;20455;-71
2021/05/04 02:20:18;;;;;;;0.83;0.83;;;13.30;16.00;;;13.87;100.00;-21058.94;4994286;28;20521;-71
2021/05/04 02:22:44;;;;;;;0.80;0.70;;;13.40;14.80;;;13.87;100.00;-21058.81;4977037;28;20511;-71
2021/05/04 02:25:13;;;;;;;0.70;0.70;;;13.40;14.50;;;13.72;100.00;-21054.94;4994702;28;20452;-70
2021/05/04 02:27:41;;;;;;;0.70;0.60;;;13.30;14.30;;;13.64;100.00;-21052.75;4994455;28;20523;-69
2021/05/04 02:30:10;;;;;;;0.70;0.60;;;13.20;14.10;;;13.76;100.00;-21055.91;4993490;28;20842;-70
2021/05/04 02:32:37;;;;;;;0.70;0.63;;;13.20;15.00;;;13.60;100.00;-21051.50;4994159;28;20752;-70
2021/05/04 02:35:06;;;;;;;0.73;0.70;;;13.10;16.60;;;13.05;100.00;-21036.75;4977004;28;20817;-69
2021/05/04 02:37:33;;;;;;;0.70;0.70;;;12.70;22.20;;;12.37;100.00;-21018.25;4977061;28;20537;-70
2021/05/04 02:40:00;;;;;;;0.80;0.70;;;12.10;32.50;;;11.86;100.00;-21004.59;4977740;28;20481;-70
2021/05/04 02:42:27;;;;;;;0.70;0.60;;;11.60;44.20;;;11.52;100.00;-20995.34;4993984;28;20851;-69
2021/05/04 02:44:55;;;;;;;0.80;0.70;;;11.30;58.20;;;10.95;100.00;-20980.00;4976571;28;20447;-69
2021/05/04 02:47:22;;;;;;;0.70;0.60;;;10.80;80.40;;;10.61;100.00;-20970.72;4999875;28;20937;-69
2021/05/04 02:49:50;;;;;;;0.70;0.60;;;10.40;87.30;;;10.38;100.00;-20964.50;5005491;28;20434;-69
2021/05/04 02:52:17;;;;;;;0.70;0.60;;;10.30;94.50;;;10.09;100.00;-20956.75;5013082;28;20469;-68
2021/05/04 02:54:45;;;;;;;0.70;0.60;;;10.00;99.90;;;9.89;100.00;-20951.22;5013930;28;20511;-68
2021/05/04 02:57:12;;;;;;;0.70;0.60;;;9.80;99.90;;;9.83;100.00;-20949.56;5014091;28;20968;-69
2021/05/04 02:59:40;;;;;;;0.73;0.60;;;9.80;99.90;;;9.77;100.00;-20947.88;4993064;28;20462;-68
2021/05/04 03:02:07;;;;;;;0.70;0.60;;;9.70;99.90;;;9.63;100.00;-20944.28;4993953;28;20550;-69
2021/05/04 03:04:35;;;;;;;0.70;0.60;;;9.50;99.90;;;9.62;100.00;-20944.00;4993049;28;20739;-69
2021/05/04 03:07:02;;;;;;;0.70;0.60;;;9.50;99.90;;;9.59;100.00;-20943.19;4994963;28;20501;-69
2021/05/04 03:09:29;;;;;;;0.70;0.60;;;9.50;99.90;;;9.50;100.00;-20940.53;4992922;28;20565;-68
2021/05/04 03:11:56;;;;;;;0.70;0.60;;;9.40;99.90;;;9.38;100.00;-20937.38;4994024;28;21312;-69
2021/05/04 03:14:24;;;;;;;0.70;0.60;;;9.30;99.90;;;9.25;100.00;-20933.75;4981631;28;20541;-70
2021/05/04 03:16:52;;;;;;;0.70;0.60;;;9.10;99.90;;;9.17;100.00;-20931.81;4993545;28;20782;-71
2021/05/04 03:19:19;;;;;;;0.70;0.60;;;9.00;99.90;;;9.07;100.00;-20929.06;4993405;28;20572;-70
2021/05/04 03:21:47;;;;;;;0.70;0.60;;;8.90;99.90;;;9.10;100.00;-20929.88;4993412;28;20453;-69
2021/05/04 03:24:14;;;;;;;0.80;0.70;;;8.90;99.90;;;8.96;100.00;-20926.00;4978592;28;20990;-69
2021/05/04 03:26:41;;;;;;;0.70;0.60;;;8.80;99.90;;;8.95;100.00;-20925.72;4998693;28;20456;-70
2021/05/04 03:29:08;;;;;;;0.70;0.60;;;8.80;99.90;;;8.88;100.00;-20923.78;4980492;28;20529;-71
2021/05/04 03:31:35;;;;;;;0.70;0.60;;;8.70;99.90;;;8.95;100.00;-20925.72;4993686;28;20422;-70
2021/05/04 03:34:03;;;;;;;0.70;0.60;;;8.80;99.90;;;8.98;100.00;-20926.41;4995173;28;20442;-70
2021/05/04 03:36:30;;;;;;;0.70;0.60;;;8.80;99.90;;;8.97;100.00;-20926.28;4976156;28;20582;-72
2021/05/04 03:38:58;;;;;;;0.70;0.60;;;8.80;99.90;;;9.01;100.00;-20927.38;4993342;28;20473;-71
2021/05/04 03:41:25;;;;;;;0.70;0.60;;;8.80;99.90;;;8.98;100.00;-20926.56;4992036;28;20433;-73
2021/05/04 03:43:52;;;;;;;0.70;0.70;;;8.80;99.90;;;9.13;100.00;-20930.72;4993431;28;20493;-73
2021/05/04 03:46:19;;;;;;;0.70;0.60;;;8.90;99.90;;;9.13;100.00;-20930.72;4960536;28;20782;-72
2021/05/04 03:48:46;;;;;;;0.70;0.60;;;8.90;99.90;;;9.22;100.00;-20932.94;4993384;28;20930;-69
2021/05/04 03:51:13;;;;;;;0.70;0.60;;;8.90;99.90;;;9.30;100.00;-20935.28;4996004;28;20418;-72
2021/05/04 03:53:41;;;;;;;0.70;0.60;;;9.00;99.90;;;9.31;100.00;-20935.41;4992107;28;20455;-72
2021/05/04 03:56:09;;;;;;;0.70;0.53;;;9.00;99.90;;;9.35;100.00;-20936.53;4993325;28;20438;-72
2021/05/04 03:58:36;;;;;;;0.70;0.60;;;9.00;99.90;;;9.50;100.00;-20940.69;4991600;28;20450;-72
2021/05/04 04:01:03;;;;;;;0.70;0.53;;;9.10;99.90;;;9.51;100.00;-20940.97;5002581;28;20523;-72
2021/05/04 04:03:30;;;;;;;0.70;0.60;;;9.10;99.90;;;9.58;100.00;-20942.91;4997867;28;20449;-72
2021/05/04 04:05:57;;;;;;;0.70;0.60;;;9.20;99.90;;;9.54;100.00;-20941.81;4991840;28;20449;-68
2021/05/04 04:08:24;;;;;;;0.70;0.60;;;9.20;99.90;;;9.61;100.00;-20943.59;5001203;28;20469;-70
2021/05/04 04:10:51;;;;;;;0.70;0.60;;;9.20;99.90;;;9.53;100.00;-20941.53;5000604;28;20442;-70
2021/05/04 04:13:19;;;;;;;0.70;0.60;;;9.20;99.90;;;9.54;100.00;-20941.81;4992537;28;20470;-70
2021/05/04 04:15:46;;;;;;;0.70;0.60;;;9.10;99.90;;;9.53;100.00;-20941.53;4992053;28;20462;-71
2021/05/04 04:18:13;;;;;;;0.70;0.60;;;9.10;99.90;;;9.54;100.00;-20941.66;4975876;28;20443;-68
2021/05/04 04:20:40;;;;;;;0.70;0.60;;;9.20;99.90;;;9.61;100.00;-20943.59;4992685;28;20823;-68
2021/05/04 04:23:07;;;;;;;0.70;0.60;;;9.20;99.90;;;9.52;100.00;-20941.25;4995646;28;20886;-70
2021/05/04 04:25:34;;;;;;;0.70;0.60;;;9.10;99.90;;;9.60;100.00;-20943.31;5013098;28;20496;-71
2021/05/04 04:28:02;;;;;;;0.70;0.60;;;9.10;99.90;;;9.56;100.00;-20942.34;5001868;28;20478;-71
2021/05/04 04:30:29;;;;;;;0.70;0.60;;;9.10;99.90;;;9.57;100.00;-20942.50;4996943;28;20434;-68
2021/05/04 04:32:57;;;;;;;0.70;0.60;;;9.20;99.90;;;9.59;100.00;-20943.19;4979027;28;21009;-69
2021/05/04 04:35:24;;;;;;;0.70;0.60;;;9.20;99.90;;;9.57;100.00;-20942.63;4979183;28;20447;-68
2021/05/04 04:37:51;;;;;;;0.70;0.60;;;9.20;99.90;;;9.63;100.00;-20944.16;4994728;28;20472;-74
2021/05/04 04:40:19;;;;;;;0.70;0.50;;;9.20;99.90;;;9.65;100.00;-20944.84;4993350;28;20868;-68
2021/05/04 04:42:46;;;;;;;0.70;0.50;;;9.10;99.90;;;9.59;100.00;-20943.19;4984348;28;20446;-69
2021/05/04 04:45:14;;;;;;;0.70;0.60;;;9.20;99.90;;;9.57;100.00;-20942.63;4998029;28;20624;-68
2021/05/04 04:47:42;;;;;;;0.70;0.60;;;9.20;99.90;;;9.64;100.00;-20944.56;4996141;28;20838;-69
2021/05/04 04:50:10;;;;;;;0.70;0.50;;;9.10;99.90;;;9.70;100.00;-20946.09;4996020;28;20492;-69
2021/05/04 04:52:37;;;;;;;0.70;0.60;;;9.10;99.90;;;9.60;100.00;-20943.47;4984687;28;20483;-70
2021/05/04 04:55:06;;;;;;;0.70;0.60;;;9.10;99.90;;;9.54;100.00;-20941.81;4998455;28;20414;-69
2021/05/04 04:57:34;;;;;;;0.70;0.60;;;9.10;99.90;;;9.62;100.00;-20944.00;5002462;28;20915;-71
2021/05/04 05:00:07;;;;;;;0.70;0.60;;;9.10;99.90;;;9.66;100.00;-20945.13;4980838;28;20560;-69
2021/05/04 05:02:37;;;;;;;0.70;0.60;;;9.10;99.90;;;9.59;100.00;-20943.19;4997751;28;20477;-69
2021/05/04 05:05:07;;;;;;;0.70;0.60;;;9.20;99.90;;;9.58;100.00;-20942.91;4996055;28;20433;-68
2021/05/04 05:07:34;;;;;;;0.70;0.50;;;9.10;99.90;;;9.58;100.00;-20942.91;4994335;28;20465;-68
2021/05/04 05:10:01;;;;;;;0.70;0.60;;;9.10;99.90;;;9.66;100.00;-20945.13;4995794;28;20439;-69
2021/05/04 05:12:28;;;;;;;0.70;0.50;;;9.20;99.90;;;9.66;100.00;-20945.13;4995595;28;20530;-68
2021/05/04 05:14:57;;;;;;;0.70;0.70;;;9.20;99.90;;;9.72;100.00;-20946.66;4995605;28;20522;-71
2021/05/04 05:17:24;;;;;;;0.70;0.70;;;9.20;99.90;;;9.78;100.00;-20948.16;4995589;28;20914;-70
2021/05/04 05:19:52;;;;;;;0.70;0.60;;;9.20;99.90;;;9.73;100.00;-20946.78;4995644;28;20480;-71
2021/05/04 05:22:20;;;;;;;0.70;0.60;;;9.20;99.90;;;9.66;100.00;-20945.13;4994774;28;20545;-68
2021/05/04 05:24:47;;;;;;;0.70;0.60;;;9.20;99.90;;;9.66;100.00;-20944.97;5008058;28;20918;-68
2021/05/04 05:27:15;;;;;;;0.80;0.80;;;9.20;99.90;;;9.70;100.00;-20945.94;5015379;28;20505;-73
2021/05/04 05:29:43;;;;;;;0.70;0.60;;;9.20;99.90;;;9.81;100.00;-20949.13;4983385;28;20435;-70
2021/05/04 05:32:10;;;;;;;0.70;0.60;;;9.30;99.90;;;9.71;100.00;-20946.38;4977033;28;20447;-70
2021/05/04 05:34:38;;;;;;;0.70;0.60;;;9.30;99.90;;;9.73;100.00;-20946.78;4995113;28;20426;-71
2021/05/04 05:37:06;;;;;;;0.70;0.60;;;9.30;99.90;;;9.84;100.00;-20949.97;4994308;28;20446;-71
2021/05/04 05:39:42;;;;;;;0.70;0.60;;;9.30;99.90;;;9.84;100.00;-20949.81;4980465;28;20790;-70
2021/05/04 05:42:10;;;;;;;0.70;0.60;;;9.30;99.90;;;9.88;100.00;-20950.94;4996973;28;20437;-68
2021/05/04 05:44:38;;;;;;;0.70;0.50;;;9.30;99.90;;;9.78;100.00;-20948.31;4978587;28;20537;-70
2021/05/04 05:47:06;;;;;;;0.70;0.60;;;9.30;99.90;;;9.93;100.00;-20952.31;4993936;28;20530;-70
2021/05/04 05:49:33;;;;;;;0.67;0.50;;;9.30;99.90;;;9.89;100.00;-20951.22;4995128;28;20636;-72
2021/05/04 05:52:00;;;;;;;0.70;0.60;;;9.30;99.90;;;9.84;100.00;-20949.97;4995026;28;20426;-70
2021/05/04 05:54:30;;;;;;;0.70;0.60;;;9.30;99.90;;;9.89;100.00;-20951.22;4994697;28;20894;-72
2021/05/04 05:56:58;;;;;;;0.70;0.50;;;9.40;99.90;;;9.90;100.00;-20951.50;4994815;28;20433;-71
2021/05/04 05:59:26;;;;;;;0.70;0.60;;;9.40;99.90;;;9.87;100.00;-20950.66;4995048;28;20493;-71
2021/05/04 06:01:53;;;;;;;0.70;0.60;;;9.40;99.90;;;9.87;100.00;-20950.66;4999352;28;20446;-73
2021/05/04 06:04:20;;;;;;;0.70;0.60;;;9.40;99.90;;;9.92;100.00;-20952.03;5006379;28;20526;-70
2021/05/04 06:06:47;;;;;;;0.70;0.60;;;9.40;99.90;;;10.00;100.00;-20954.13;5007890;28;20441;-71
2021/05/04 06:09:15;;;;;;;0.70;0.57;;;9.50;99.90;;;10.08;100.00;-20956.47;4978273;28;20550;-69
2021/05/04 06:11:42;;;;;;;0.70;0.60;;;9.50;99.90;;;10.06;100.00;-20955.91;5014155;28;20525;-72
2021/05/04 06:14:11;;;;;;;0.70;0.60;;;9.50;99.90;;;10.10;100.00;-20956.88;5014483;28;20519;-72
2021/05/04 06:16:42;;;;;;;0.70;0.60;;;9.60;99.90;;;10.18;100.00;-20959.09;5014725;28;20524;-72
2021/05/04 06:19:09;;;;;;;1.00;0.90;;;9.60;99.90;;;10.27;100.00;-20961.59;5014067;28;20419;-70
2021/05/04 06:21:36;;;;;;;0.70;0.60;;;9.60;99.90;;;10.29;100.00;-20962.00;4980181;28;20463;-69
2021/05/04 06:24:05;;;;;;;1.70;1.17;;;9.60;99.90;;;10.19;100.00;-20959.38;4994202;28;20458;-72
2021/05/04 06:26:35;;;;;;;0.70;0.57;;;9.60;99.90;;;10.29;100.00;-20962.16;4994750;28;20451;-72
2021/05/04 06:29:04;;;;;;;0.70;0.60;;;9.60;99.90;;;10.22;100.00;-20960.22;4992961;28;20442;-72
2021/05/04 06:31:32;;;;;;;0.70;0.60;;;9.60;99.90;;;10.27;100.00;-20961.47;4993399;28;20450;-72
2021/05/04 06:33:59;;;;;;;0.70;0.60;;;9.60;99.90;;;10.25;100.00;-20960.91;4976931;28;20439;-71
2021/05/04 06:36:27;;;;;;;0.70;0.60;;;9.70;99.90;;;10.42;100.00;-20965.47;4994619;28;20446;-73
2021/05/04 06:38:54;;;;;;;0.70;0.50;;;9.70;99.90;;;10.31;100.00;-20962.56;4968022;28;20557;-73
2021/05/04 06:41:21;;;;;;;0.70;0.53;;;9.70;99.90;;;10.27;100.00;-20961.47;5007374;28;20470;-71
2021/05/04 06:43:50;;;;;;;0.70;0.70;;;9.70;99.90;;;10.30;100.00;-20962.28;5001762;28;21006;-72
2021/05/04 06:46:18;;;;;;;0.70;0.60;;;9.70;99.90;;;10.35;100.00;-20963.69;4962122;28;20981;-71
2021/05/04 06:48:46;;;;;;;0.70;0.60;;;9.70;99.90;;;10.32;100.00;-20962.84;4976084;28;20436;-71
2021/05/04 06:51:13;;;;;;;0.70;0.57;;;9.70;99.90;;;10.25;100.00;-20960.91;4994102;28;20442;-69
2021/05/04 06:53:40;;;;;;;0.70;0.70;;;9.70;99.90;;;10.33;100.00;-20963.13;4976808;28;20458;-73
2021/05/04 06:56:07;;;;;;;0.70;0.60;;;9.80;99.90;;;10.32;100.00;-20962.84;5000005;28;20797;-72
2021/05/04 06:58:34;;;;;;;0.70;0.60;;;9.80;99.90;;;10.54;100.00;-20968.94;5013595;28;20438;-70
2021/05/04 07:01:02;;;;;;;0.70;0.50;;;9.80;99.90;;;10.45;100.00;-20966.44;4998117;28;20474;-69
2021/05/04 07:03:29;;;;;;;0.70;0.50;;;9.90;99.90;;;10.58;100.00;-20970.03;4976737;28;20437;-72
2021/05/04 07:05:57;;;;;;;0.70;0.60;;;10.00;99.90;;;10.85;100.00;-20977.22;4992769;28;20432;-71
2021/05/04 07:08:24;;;;;;;0.70;0.60;;;10.10;99.90;;;11.00;100.00;-20981.38;4974459;28;20468;-71
2021/05/04 07:10:52;;;;;;;0.70;0.60;;;10.20;99.90;;;10.94;100.00;-20979.72;4995170;28;20508;-70
2021/05/04 07:13:19;;;;;;;0.70;0.60;;;10.20;99.90;;;10.83;100.00;-20976.69;4993144;28;20805;-73
2021/05/04 07:15:47;;;;;;;0.70;0.60;;;10.20;99.90;;;10.80;100.00;-20975.84;4994067;28;20417;-73
2021/05/04 07:18:16;;;;;;;1.27;1.17;;;10.20;99.90;;;10.80;100.00;-20975.84;4981674;28;20448;-71
2021/05/04 07:20:44;;;;;;;0.70;0.60;;;10.10;99.90;;;10.75;100.00;-20974.47;5004510;28;20818;-68
2021/05/04 07:23:13;;;;;;;0.70;0.60;;;10.10;99.90;;;10.82;100.00;-20976.41;4976974;28;20485;-71
2021/05/04 07:25:41;;;;;;;0.70;0.50;;;10.10;99.90;;;10.78;100.00;-20975.28;4996044;28;20413;-69
2021/05/04 07:28:09;;;;;;;0.70;0.60;;;10.10;99.90;;;10.71;100.00;-20973.34;4978603;28;20924;-70
2021/05/04 07:30:41;;;;;;;0.70;0.60;;;10.10;99.90;;;10.61;100.00;-20970.88;4978822;28;20494;-70
2021/05/04 07:33:09;;;;;;;0.70;0.60;;;10.00;99.90;;;10.67;100.00;-20972.25;4995795;28;20443;-71
2021/05/04 07:35:36;;;;;;;0.70;0.60;;;10.00;99.90;;;10.70;100.00;-20973.22;4996073;28;20850;-73
2021/05/04 07:38:04;;;;;;;0.70;0.60;;;10.10;99.90;;;10.74;100.00;-20974.19;4992671;28;20467;-71
2021/05/04 07:40:33;;;;;;;0.70;0.60;;;10.10;99.90;;;10.72;100.00;-20973.63;4995652;28;20455;-69
2021/05/04 07:43:12;;;;;;;0.70;0.60;;;10.10;99.90;;;10.64;100.00;-20971.69;4998138;28;20468;-72
2021/05/04 07:45:43;;;;;;;0.70;0.60;;;10.10;99.90;;;10.78;100.00;-20975.28;4989999;28;20443;-70
2021/05/04 07:48:11;;;;;;;0.70;0.53;;;10.10;99.90;;;10.70;100.00;-20973.09;4958450;28;20436;-69
2021/05/04 07:50:39;;;;;;;0.70;0.60;;;10.10;99.90;;;10.84;100.00;-20976.94;4973854;28;20463;-71
2021/05/04 07:53:07;;;;;;;0.70;0.50;;;10.20;99.90;;;10.86;100.00;-20977.66;4974863;28;20527;-69
2021/05/04 07:55:35;;;;;;;0.70;0.60;;;10.20;99.90;;;10.92;100.00;-20979.16;4975748;28;20420;-69
2021/05/04 07:58:03;;;;;;;0.70;0.60;;;10.30;99.90;;;10.98;100.00;-20980.81;4999284;28;20940;-70
2021/05/04 08:00:30;;;;;;;0.70;0.60;;;10.30;99.90;;;11.09;100.00;-20983.88;4993882;28;20881;-71
2021/05/04 08:03:00;;;;;;;0.70;0.60;;;10.40;99.90;;;11.04;100.00;-20982.47;4981105;28;20440;-71
2021/05/04 08:05:29;;;;;;;0.70;0.60;;;10.50;99.90;;;11.12;100.00;-20984.69;4996666;28;20422;-70
2021/05/04 08:07:56;;;;;;;0.70;0.60;;;10.50;99.90;;;11.11;100.00;-20984.28;4996767;28;20554;-72
2021/05/04 08:10:23;;;;;;;0.70;0.50;;;10.50;99.90;;;11.17;100.00;-20985.81;4987250;28;20973;-71
2021/05/04 08:12:51;;;;;;;0.77;0.70;;;10.60;99.90;;;11.21;100.00;-20986.91;4975242;28;20465;-68
2021/05/04 08:15:19;;;;;;;0.70;0.57;;;10.60;99.90;;;11.19;100.00;-20986.34;4998403;28;20465;-70
2021/05/04 08:17:58;;;;;;;0.70;0.60;;;10.60;99.90;;;11.34;100.00;-20990.50;4996650;28;20440;-72
2021/05/04 08:20:31;;;;;;;0.70;0.60;;;10.70;99.90;;;11.18;100.00;-20986.06;4998018;28;20455;-71
2021/05/04 08:23:01;;;;;;;0.70;0.60;;;10.60;99.90;;;10.92;100.00;-20979.16;4997900;28;20509;-71
2021/05/04 08:25:28;;;;;;;0.70;0.60;;;10.40;99.90;;;10.95;100.00;-20979.84;5016723;28;20476;-70
2021/05/04 08:27:56;;;;;;;0.70;0.50;;;10.40;99.90;;;11.03;100.00;-20982.22;5017964;28;20423;-70
2021/05/04 08:30:24;;;;;;;0.70;0.50;;;10.40;99.90;;;11.07;100.00;-20983.31;5015922;28;20984;-69
2021/05/04 08:32:57;;;;;;;0.70;0.50;;;10.40;99.90;;;11.10;100.00;-20984.16;4998966;28;20546;-70
2021/05/04 08:35:30;;;;;;;0.70;0.60;;;10.50;99.90;;;10.92;100.00;-20979.03;4981271;28;20482;-69
2021/05/04 08:37:57;;;;;;;0.70;0.50;;;10.40;99.90;;;10.91;100.00;-20978.88;4998565;28;20962;-71
2021/05/04 08:40:26;;;;;;;0.70;0.60;;;10.40;99.90;;;10.79;100.00;-20975.72;4996950;28;20454;-71
2021/05/04 08:42:56;;;;;;;0.70;0.50;;;10.30;99.90;;;10.49;100.00;-20967.41;4997503;28;20444;-70
2021/05/04 08:45:23;;;;;;;0.70;0.50;;;10.10;99.90;;;10.63;100.00;-20971.28;4980344;28;20411;-71
2021/05/04 08:47:51;;;;;;;0.70;0.60;;;10.10;99.90;;;10.56;100.00;-20969.47;4997646;28;20954;-70
2021/05/04 08:50:21;;;;;;;0.70;0.50;;;10.10;99.90;;;10.52;100.00;-20968.38;4981552;28;20429;-72
2021/05/04 08:52:54;;;;;;;0.70;0.60;;;10.00;99.90;;;10.31;100.00;-20962.56;4996864;28;20462;-75
2021/05/04 08:55:23;;;;;;;0.70;0.50;;;9.90;99.90;;;10.27;100.00;-20961.59;4998494;28;20416;-72
2021/05/04 08:57:51;;;;;;;0.70;0.60;;;9.90;99.90;;;10.43;100.00;-20965.88;4995210;28;20449;-71
2021/05/04 09:00:20;;;;;;;0.70;0.60;;;9.90;99.90;;;10.63;100.00;-20971.28;4996067;28;20470;-70
2021/05/04 09:06:06;;;;;;;0.70;0.60;;;10.30;99.90;;;11.01;100.00;-20981.66;4958504;28;20940;-74
2021/05/04 09:21:53;;;;;;;0.70;0.70;;;10.70;99.90;;;11.30;100.00;-20989.41;5002171;28;20481;-71
2021/05/04 09:24:28;;;;;;;0.70;0.60;;;10.70;99.90;;;11.19;100.00;-20986.34;5016481;28;20450;-70
2021/05/04 09:27:05;;;;;;;0.70;0.60;;;10.70;99.90;;;11.36;100.00;-20991.19;4998210;28;21009;-70
2021/05/04 09:29:36;;;;;;;0.70;0.60;;;10.80;99.90;;;11.33;100.00;-20990.22;4977408;28;20442;-69
2021/05/04 09:32:15;;;;;;;0.70;0.60;;;10.90;99.90;;;11.31;100.00;-20989.69;4978042;28;20489;-68
2021/05/04 09:34:53;;;;;;;0.70;0.60;;;10.90;99.90;;;11.44;100.00;-20993.25;4979040;28;20877;-70
2021/05/04 09:37:31;;;;;;;0.70;0.53;;;11.00;99.90;;;11.49;100.00;-20994.50;4978137;28;20423;-69
2021/05/04 09:40:25;;;;;;;0.70;0.50;;;11.10;99.90;;;11.63;100.00;-20998.38;4994113;28;20552;-68
2021/05/04 09:43:09;;;;;;;0.70;0.60;;;11.20;99.90;;;11.63;100.00;-20998.25;4995732;28;20502;-70
2021/05/04 09:45:42;;;;;;;0.70;0.60;;;11.20;99.90;;;11.59;100.00;-20997.41;4995647;28;20414;-73
2021/05/04 09:48:22;;;;;;;0.70;0.60;;;11.20;99.90;;;11.66;100.00;-20999.06;4995739;28;20435;-69
2021/05/04 09:51:03;;;;;;;0.70;0.60;;;11.20;99.90;;;11.81;100.00;-21003.34;4980185;28;20452;-70
2021/05/04 09:56:32;;;;;;;0.70;0.60;;;11.40;99.90;;;12.20;100.00;-21013.84;5014811;28;20787;-69
2021/05/04 09:58:59;;;;;;;0.70;0.50;;;11.60;99.90;;;12.28;100.00;-21015.91;4994698;28;20791;-69
2021/05/04 10:01:26;;;;;;;0.70;0.50;;;11.70;99.90;;;12.73;100.00;-21028.06;4997167;28;20472;-69
2021/05/04 10:03:54;;;;;;;0.70;0.60;;;11.90;99.90;;;12.79;100.00;-21029.72;4995676;28;20872;-70
2021/05/04 10:06:23;;;;;;;0.70;0.60;;;12.00;99.90;;;12.99;100.00;-21035.22;4995944;28;20484;-68
2021/05/04 10:08:51;;;;;;;0.70;0.60;;;12.20;99.90;;;13.48;100.00;-21048.47;4996293;28;20457;-72
2021/05/04 10:11:21;;;;;;;0.70;0.60;;;12.60;99.90;;;13.50;100.00;-21049.03;4993046;28;20440;-72
2021/05/04 10:13:54;;;;;;;0.70;0.60;;;12.60;99.90;;;13.71;100.00;-21054.69;4976141;28;20565;-71
2021/05/04 10:16:25;;;;;;;0.70;0.60;;;12.60;99.90;;;13.49;100.00;-21048.75;4995461;28;20525;-72
2021/05/04 10:19:00;;;;;;;0.70;0.67;;;12.60;99.90;;;14.01;100.00;-21062.81;5017787;28;20435;-73
2021/05/04 10:21:32;;;;;;;0.80;0.70;;;12.80;99.90;;;14.05;100.00;-21063.78;5001477;28;20461;-70
2021/05/04 10:24:06;;;;;;;0.70;0.60;;;13.00;99.90;;;14.38;100.00;-21072.72;4994964;28;20503;-74
2021/05/04 10:26:34;;;;;;;0.80;0.80;;;13.40;99.90;;;14.97;100.00;-21088.56;4983023;28;20445;-74
2021/05/04 10:29:07;;;;;;;0.70;0.60;;;13.80;99.90;;;15.07;100.00;-21091.16;5000718;28;20447;-74
2021/05/04 10:31:38;;;;;;;0.80;0.60;;;14.20;99.90;;;15.36;100.00;-21099.13;5015831;28;20433;-72
2021/05/04 10:34:31;;;;;;;0.80;0.67;;;14.10;99.90;;;16.05;100.00;-21117.69;5012366;28;20418;-73